Time;durP1;ratioP1;P1;durP2;ratioP2;P2;SDS_P1;SDS_P2;PMS_P1;PMS_P2;Temp;Humidity;BMP_temperature;BMP_pressure;BME280_temperature;BME280_humidity;BME280_pressure;Samples;Min_cycle;Max_cycle;Signal;HPM_P1;HPM_P2
2022/07/23 00:00:44;;;;;;;17.17;15.45;;;;;;;;;;4992017;28;20138;-51
2022/07/23 00:03:10;;;;;;;18.92;14.25;;;;;;;;;;4992061;28;20042;-54
2022/07/23 00:05:36;;;;;;;14.05;12.13;;;;;;;;;;4992247;28;20034;-55
2022/07/23 00:08:02;;;;;;;14.82;11.50;;;;;;;;;;4991787;28;20037;-54
2022/07/23 00:10:28;;;;;;;13.57;11.50;;;;;;;;;;4991808;28;20042;-54
2022/07/23 00:12:54;;;;;;;15.10;10.55;;;;;;;;;;4992041;28;20150;-54
2022/07/23 00:15:20;;;;;;;13.18;11.18;;;;;;;;;;4992092;28;20110;-53
2022/07/23 00:17:46;;;;;;;23.73;14.38;;;;;;;;;;4991985;28;20432;-53
2022/07/23 00:20:13;;;;;;;26.27;17.85;;;;;;;;;;4991552;28;20058;-54
2022/07/23 00:22:48;;;;;;;18.35;16.23;;;;;;;;;;4992159;28;20022;-52
2022/07/23 00:25:14;;;;;;;19.77;15.98;;;;;;;;;;4991957;28;20070;-51
2022/07/23 00:27:40;;;;;;;23.70;17.20;;;;;;;;;;4992228;28;20033;-53
2022/07/23 00:30:06;;;;;;;18.63;16.45;;;;;;;;;;4990713;28;20030;-53
2022/07/23 00:32:33;;;;;;;25.55;16.48;;;;;;;;;;4991972;28;20026;-52
2022/07/23 00:34:59;;;;;;;17.55;15.75;;;;;;;;;;4992061;28;20034;-53
2022/07/23 00:37:25;;;;;;;19.52;14.93;;;;;;;;;;4991660;28;20038;-53
2022/07/23 00:39:51;;;;;;;24.63;16.13;;;;;;;;;;4991644;28;20057;-53
2022/07/23 00:42:17;;;;;;;21.55;16.23;;;;;;;;;;4991990;28;20018;-55
2022/07/23 00:44:43;;;;;;;16.25;14.18;;;;;;;;;;4991831;28;20030;-54
2022/07/23 00:47:09;;;;;;;24.27;17.23;;;;;;;;;;4991416;28;20054;-54
2022/07/23 00:49:35;;;;;;;24.23;17.08;;;;;;;;;;4991703;28;20034;-54
2022/07/23 00:52:02;;;;;;;21.75;17.00;;;;;;;;;;4991710;28;20521;-53
2022/07/23 00:54:28;;;;;;;20.75;17.48;;;;;;;;;;4991969;28;20081;-52
2022/07/23 00:56:54;;;;;;;25.50;16.95;;;;;;;;;;4993538;28;20102;-52
2022/07/23 00:59:20;;;;;;;22.35;16.00;;;;;;;;;;4995226;28;20112;-51
2022/07/23 01:01:48;;;;;;;21.30;15.80;;;;;;;;;;4995305;28;20023;-52
2022/07/23 01:04:15;;;;;;;20.83;16.85;;;;;;;;;;4995240;28;20038;-51
2022/07/23 01:06:41;;;;;;;27.45;18.35;;;;;;;;;;4994744;28;20026;-55
2022/07/23 01:09:07;;;;;;;19.48;17.48;;;;;;;;;;4995141;28;20026;-54
2022/07/23 01:11:35;;;;;;;26.13;17.67;;;;;;;;;;4995403;28;20037;-58
2022/07/23 01:14:08;;;;;;;23.20;18.30;;;;;;;;;;4995204;28;20030;-58
2022/07/23 01:16:34;;;;;;;24.35;18.60;;;;;;;;;;4995115;28;20482;-58
2022/07/23 01:19:00;;;;;;;24.05;17.55;;;;;;;;;;4994684;28;20038;-58
2022/07/23 01:21:26;;;;;;;21.67;17.33;;;;;;;;;;4995148;28;20029;-56
2022/07/23 01:23:52;;;;;;;18.65;16.27;;;27.20;53.20;;;;;;4994042;28;20030;-58
2022/07/23 01:26:18;;;;;;;19.00;15.60;;;;;;;;;;4994857;28;20019;-57
2022/07/23 01:28:44;;;;;;;22.33;14.25;;;;;;;;;;4994813;28;20097;-57
2022/07/23 01:31:10;;;;;;;16.08;14.35;;;;;;;;;;4994952;28;20074;-55
2022/07/23 01:33:36;;;;;;;18.15;13.10;;;;;;;;;;4995147;28;20023;-57
2022/07/23 01:36:02;;;;;;;19.27;12.63;;;;;;;;;;4993489;28;20045;-57
2022/07/23 01:38:28;;;;;;;14.98;11.88;;;;;;;;;;4994226;28;20034;-59
2022/07/23 01:40:54;;;;;;;19.38;11.43;;;;;;;;;;4994333;28;20452;-57
2022/07/23 01:43:20;;;;;;;13.27;11.88;;;;;;;;;;4993085;28;20390;-58
2022/07/23 01:45:46;;;;;;;19.02;14.02;;;;;;;;;;4992675;28;20026;-57
2022/07/23 01:48:12;;;;;;;17.40;12.80;;;;;;;;;;4992523;28;20041;-58
2022/07/23 01:50:38;;;;;;;21.73;11.75;;;;;;;;;;4993072;28;20475;-57
2022/07/23 01:53:05;;;;;;;19.83;12.80;;;;;;;;;;4993194;28;20077;-57
2022/07/23 01:55:31;;;;;;;22.48;13.32;;;;;;;;;;4992888;28;20041;-58
2022/07/23 01:57:57;;;;;;;13.35;11.93;;;;;;;;;;4993509;28;20026;-58
2022/07/23 02:00:23;;;;;;;19.75;12.38;;;;;;;;;;4992774;28;20033;-57
2022/07/23 02:02:49;;;;;;;18.45;11.40;;;;;;;;;;4993080;28;20022;-57
2022/07/23 02:05:15;;;;;;;17.40;13.45;;;;;;;;;;4994325;28;20055;-58
2022/07/23 02:07:42;;;;;;;19.30;13.57;;;;;;;;;;4992359;28;20518;-57
2022/07/23 02:10:08;;;;;;;15.70;13.18;;;;;;;;;;4993497;28;20381;-55
2022/07/23 02:12:34;;;;;;;18.38;12.85;;;;;;;;;;4992529;28;20030;-54
2022/07/23 02:15:00;;;;;;;18.70;14.63;;;;;;;;;;4994121;28;20505;-57
2022/07/23 02:17:26;;;;;;;24.65;15.75;;;29.10;56.20;;;;;;4993937;28;20061;-57
2022/07/23 02:19:52;;;;;;;21.43;15.00;;;;;;;;;;4993271;28;20062;-55
2022/07/23 02:22:18;;;;;;;22.38;15.73;;;;;;;;;;4993726;28;20029;-53
2022/07/23 02:24:44;;;;;;;16.98;15.13;;;;;;;;;;4992657;28;20061;-56
2022/07/23 02:27:10;;;;;;;23.08;17.67;;;;;;;;;;4993695;28;20027;-54
2022/07/23 02:29:36;;;;;;;20.40;17.35;;;;;;;;;;4993033;28;20407;-57
2022/07/23 02:32:02;;;;;;;21.65;16.05;;;;;;;;;;4992295;28;20033;-56
2022/07/23 02:34:28;;;;;;;19.48;16.88;;;;;;;;;;4992508;28;20031;-55
2022/07/23 02:36:54;;;;;;;16.95;15.07;;;;;;;;;;4993692;28;20030;-56
2022/07/23 02:39:21;;;;;;;26.63;18.10;;;;;;;;;;4993033;28;20026;-54
2022/07/23 02:41:47;;;;;;;23.00;17.30;;;;;;;;;;4988873;28;20101;-58
2022/07/23 02:44:13;;;;;;;21.95;17.83;;;;;;;;;;4988618;28;20030;-55
2022/07/23 02:46:39;;;;;;;25.85;18.33;;;;;;;;;;4974099;28;20408;-57
2022/07/23 02:49:05;;;;;;;28.70;19.83;;;;;;;;;;4987605;28;20487;-57
2022/07/23 02:51:31;;;;;;;22.05;19.08;;;;;;;;;;4991442;28;20085;-55
2022/07/23 02:53:57;;;;;;;30.63;17.80;;;;;;;;;;4988882;28;20042;-57
2022/07/23 02:56:23;;;;;;;22.98;16.55;;;;;;;;;;4973789;28;20030;-57
2022/07/23 02:58:49;;;;;;;21.15;17.67;;;;;;;;;;4991719;28;20076;-56
2022/07/23 03:01:15;;;;;;;25.40;18.73;;;;;;;;;;4992788;28;20033;-54
2022/07/23 03:03:41;;;;;;;21.83;18.20;;;;;;;;;;4992683;28;20105;-54
2022/07/23 03:06:07;;;;;;;24.73;18.40;;;;;;;;;;4992911;28;20296;-54
2022/07/23 03:08:33;;;;;;;27.15;18.10;;;;;;;;;;4992745;28;20060;-55
2022/07/23 03:10:59;;;;;;;23.25;18.08;;;;;;;;;;4993353;28;20034;-55
2022/07/23 03:13:25;;;;;;;26.55;18.50;;;;;;;;;;4990456;28;20026;-56
2022/07/23 03:15:51;;;;;;;24.30;20.25;;;;;;;;;;4983900;28;20027;-54
2022/07/23 03:18:17;;;;;;;30.75;20.33;;;;;;;;;;4988016;28;20027;-55
2022/07/23 03:20:43;;;;;;;24.98;20.05;;;;;;;;;;4989422;28;20026;-54
2022/07/23 03:23:09;;;;;;;30.67;19.92;;;;;;;;;;4983265;28;20035;-58
2022/07/23 03:25:35;;;;;;;23.48;19.30;;;;;;;;;;4991489;28;20385;-57
2022/07/23 03:28:01;;;;;;;28.85;19.42;;;;;;;;;;4991868;28;20065;-56
2022/07/23 03:30:28;;;;;;;23.42;18.67;;;;;;;;;;4992615;28;20023;-56
2022/07/23 03:32:54;;;;;;;24.27;17.10;;;;;;;;;;4992200;28;20117;-58
2022/07/23 03:35:20;;;;;;;22.60;19.83;;;;;;;;;;4985152;28;20034;-58
2022/07/23 03:37:46;;;;;;;25.83;19.50;;;;;;;;;;4982637;28;20502;-57
2022/07/23 03:40:12;;;;;;;23.23;20.48;;;;;;;;;;4992125;28;20277;-53
2022/07/23 03:42:41;;;;;;;23.42;20.95;;;;;;;;;;4991055;28;20058;-56
2022/07/23 03:45:07;;;;;;;26.27;19.90;;;;;;;;;;4990996;28;20097;-57
2022/07/23 03:47:33;;;;;;;25.35;21.75;;;;;;;;;;4990595;28;20033;-55
2022/07/23 03:49:59;;;;;;;25.38;19.58;;;;;;;;;;4989244;28;20031;-58
2022/07/23 03:52:25;;;;;;;37.63;22.53;;;;;;;;;;4980762;28;20033;-58
2022/07/23 03:54:51;;;;;;;28.73;20.83;;;;;;;;;;4990636;28;20273;-56
2022/07/23 03:57:17;;;;;;;25.70;21.00;;;;;;;;;;4992606;28;20113;-57
2022/07/23 03:59:43;;;;;;;24.65;22.10;;;;;;;;;;4992053;28;20080;-57
2022/07/23 04:02:09;;;;;;;23.08;20.27;;;;;;;;;;4976313;28;20458;-55
2022/07/23 04:04:35;;;;;;;23.23;20.85;;;;;;;;;;4972966;28;20023;-55
2022/07/23 04:07:01;;;;;;;22.60;20.27;;;;;;;;;;4972760;28;20479;-57
2022/07/23 04:09:27;;;;;;;27.23;20.07;;;;;;;;;;4972805;28;20037;-59
2022/07/23 04:11:53;;;;;;;25.97;23.40;;;;;;;;;;4987842;28;20305;-56
2022/07/23 04:14:19;;;;;;;27.67;22.80;;;;;;;;;;4972443;28;20266;-58
2022/07/23 04:16:45;;;;;;;25.48;22.08;;;;;;;;;;4972114;28;20101;-56
2022/07/23 04:19:12;;;;;;;30.73;22.45;;;;;;;;;;4972468;28;20062;-55
2022/07/23 04:21:38;;;;;;;29.65;22.65;;;;;;;;;;4972555;28;20027;-56
2022/07/23 04:24:04;;;;;;;32.72;23.17;;;;;;;;;;4972733;28;20491;-58
2022/07/23 04:26:30;;;;;;;29.65;23.80;;;;;;;;;;4972760;28;20023;-53
2022/07/23 04:28:56;;;;;;;27.13;21.67;;;;;;;;;;4972577;28;20027;-58
2022/07/23 04:31:22;;;;;;;29.83;22.13;;;;;;;;;;4990536;28;20031;-57
2022/07/23 04:33:48;;;;;;;26.63;21.43;;;;;;;;;;4976304;28;20262;-49
2022/07/23 04:36:15;;;;;;;35.47;22.83;;;;;;;;;;4976413;28;20026;-50
2022/07/23 04:38:41;;;;;;;27.27;21.85;;;;;;;;;;4977115;28;20041;-50
2022/07/23 04:41:07;;;;;;;;;;;;;;;;;;4996104;28;20027;-51
2022/07/23 04:43:33;;;;;;;30.50;22.75;;;;;;;;;;4995922;28;19921;-49
2022/07/23 04:45:59;;;;;;;26.67;21.83;;;;;;;;;;4995825;28;20674;-50
2022/07/23 04:48:25;;;;;;;37.08;22.83;;;;;;;;;;4995598;28;20029;-50
2022/07/23 04:50:51;;;;;;;35.47;23.73;;;;;;;;;;4995595;28;20038;-52
2022/07/23 04:53:19;;;;;;;30.20;22.23;;;;;;;;;;4995697;28;20033;-50
2022/07/23 04:55:45;;;;;;;31.02;23.00;;;;;;;;;;4995900;28;20253;-50
2022/07/23 04:58:11;;;;;;;31.30;22.45;;;;;;;;;;4995629;28;20034;-49
2022/07/23 05:00:37;;;;;;;31.93;24.00;;;;;;;;;;4995293;28;20026;-51
2022/07/23 05:03:03;;;;;;;33.67;24.50;;;;;;;;;;4995591;28;20742;-49
2022/07/23 05:05:29;;;;;;;32.30;24.13;;;;;;;;;;4995539;28;20027;-50
2022/07/23 05:07:55;;;;;;;35.05;25.35;;;;;;;;;;4995411;28;20018;-50
2022/07/23 05:10:21;;;;;;;29.88;23.77;;;;;;;;;;4995200;28;20035;-50
2022/07/23 05:12:48;;;;;;;29.38;23.13;;;;;;;;;;4995491;28;20101;-51
2022/07/23 05:15:14;;;;;;;30.35;23.17;;;;;;;;;;4994180;28;20027;-49
2022/07/23 05:17:40;;;;;;;40.20;24.42;;;;;;;;;;4995364;28;20030;-49
2022/07/23 05:20:06;;;;;;;33.97;24.77;;;;;;;;;;4995092;28;20125;-49
2022/07/23 05:22:33;;;;;;;29.95;23.38;;;;;;;;;;4995142;28;20272;-50
2022/07/23 05:24:59;;;;;;;33.20;23.58;;;;;;;;;;4995110;28;20109;-51
2022/07/23 05:27:25;;;;;;;33.65;25.33;;;;;;;;;;4995170;28;20031;-54
2022/07/23 05:29:51;;;;;;;33.60;23.98;;;;;;;;;;4994444;28;20479;-51
2022/07/23 05:32:17;;;;;;;27.27;24.48;;;;;;;;;;4994722;28;20527;-51
2022/07/23 05:34:43;;;;;;;31.27;24.08;;;;;;;;;;4994753;28;20505;-51
2022/07/23 05:37:09;;;;;;;33.95;23.90;;;;;;;;;;4994775;28;20065;-51
2022/07/23 05:39:35;;;;;;;28.10;24.40;;;;;;;;;;4994268;28;20030;-51
2022/07/23 05:42:01;;;;;;;28.13;23.35;;;;;;;;;;4993374;28;20072;-52
2022/07/23 05:44:27;;;;;;;29.90;25.10;;;;;;;;;;4994085;28;20105;-50
2022/07/23 05:46:53;;;;;;;29.20;24.52;;;;;;;;;;4994016;28;20026;-51
2022/07/23 05:49:19;;;;;;;30.30;25.27;;;;;;;;;;4994014;28;20037;-53
2022/07/23 05:51:45;;;;;;;29.65;25.00;;;;;;;;;;4993819;28;20026;-51
2022/07/23 05:54:11;;;;;;;34.40;26.58;;;;;;;;;;4994104;28;20037;-54
2022/07/23 05:56:37;;;;;;;30.05;26.15;;;27.60;56.80;;;;;;4994506;28;20037;-51
2022/07/23 05:59:03;;;;;;;29.60;26.50;;;;;;;;;;4994220;28;20388;-51
2022/07/23 06:01:29;;;;;;;30.48;24.92;;;;;;;;;;4993086;28;20019;-53
2022/07/23 06:03:55;;;;;;;27.83;24.95;;;;;;;;;;4994211;28;20030;-53
2022/07/23 06:06:21;;;;;;;33.00;26.88;;;;;;;;;;4994241;28;20030;-53
2022/07/23 06:08:47;;;;;;;27.67;23.52;;;;;;;;;;4994309;28;20054;-51
2022/07/23 06:11:13;;;;;;;28.48;23.77;;;;;;;;;;4992988;28;20027;-51
2022/07/23 06:13:39;;;;;;;30.58;24.50;;;;;;;;;;4992899;28;20108;-52
2022/07/23 06:16:05;;;;;;;29.75;26.80;;;;;;;;;;4994166;28;20547;-51
2022/07/23 06:18:31;;;;;;;34.42;27.10;;;;;;;;;;4993644;28;20026;-52
2022/07/23 06:20:57;;;;;;;29.92;26.77;;;;;;;;;;4993697;28;20035;-50
2022/07/23 06:23:23;;;;;;;34.78;28.05;;;27.70;57.00;;;;;;4994055;28;20061;-58
2022/07/23 06:25:49;;;;;;;33.63;26.97;;;27.40;58.60;;;;;;4993981;28;20030;-60
2022/07/23 06:28:15;;;;;;;35.63;28.13;;;27.40;58.80;;;;;;4993954;28;20138;-60
2022/07/23 06:30:41;;;;;;;50.55;27.67;;;;;;;;;;4992252;28;20030;-59
2022/07/23 06:33:07;;;;;;;43.97;27.92;;;;;;;;;;4992005;28;20166;-60
2022/07/23 06:35:33;;;;;;;32.40;26.23;;;;;;;;;;4993817;28;20038;-60
2022/07/23 06:37:59;;;;;;;27.95;24.98;;;;;;;;;;4993812;28;20424;-60
2022/07/23 06:40:25;;;;;;;33.22;27.88;;;;;;;;;;4993423;28;20034;-58
2022/07/23 06:42:52;;;;;;;29.77;26.70;;;;;;;;;;4992650;28;20109;-60
2022/07/23 06:45:18;;;;;;;44.63;29.08;;;;;;;;;;4993618;28;20084;-61
2022/07/23 06:47:44;;;;;;;68.53;30.50;;;;;;;;;;4993498;28;20033;-60
2022/07/23 06:50:10;;;;;;;50.28;29.55;;;;;;;;;;4991929;28;20030;-60
2022/07/23 06:52:36;;;;;;;34.78;26.80;;;;;;;;;;4992309;28;20387;-60
2022/07/23 06:55:03;;;;;;;30.00;26.90;;;;;;;;;;4992868;28;20035;-60
2022/07/23 06:57:28;;;;;;;36.53;27.38;;;27.40;59.00;;;;;;4993419;28;20022;-61
2022/07/23 06:59:54;;;;;;;31.90;28.50;;;27.90;57.50;;;;;;4992996;28;20109;-61
2022/07/23 07:02:20;;;;;;;29.27;26.30;;;27.90;57.60;;;;;;4993300;28;20027;-60
2022/07/23 07:04:46;;;;;;;28.30;25.37;;;;;;;;;;4993338;28;20053;-61
2022/07/23 07:07:12;;;;;;;60.03;27.30;;;;;;;;;;4993464;28;20030;-61
2022/07/23 07:09:38;;;;;;;31.55;28.10;;;;;;;;;;4992769;28;20448;-60
2022/07/23 07:12:05;;;;;;;34.40;26.00;;;;;;;;;;4992659;28;20039;-61
2022/07/23 07:14:31;;;;;;;32.10;25.00;;;;;;;;;;4993069;28;20022;-45
2022/07/23 07:16:57;;;;;;;34.60;25.42;;;;;;;;;;4993057;28;20148;-45
2022/07/23 07:19:23;;;;;;;37.90;26.98;;;;;;;;;;4992518;28;20398;-45
2022/07/23 07:21:49;;;;;;;49.88;26.00;;;;;;;;;;4992943;28;20038;-44
2022/07/23 07:24:15;;;;;;;36.45;25.25;;;;;;;;;;4992916;28;20029;-44
2022/07/23 07:26:41;;;;;;;34.75;25.73;;;;;;;;;;4992833;28;20030;-45
2022/07/23 07:29:07;;;;;;;33.13;23.77;;;;;;;;;;4992530;28;20360;-46
2022/07/23 07:31:33;;;;;;;36.78;26.45;;;;;;;;;;4992776;28;20364;-44
2022/07/23 07:33:59;;;;;;;30.92;23.33;;;;;;;;;;4991449;28;20152;-47
2022/07/23 07:36:25;;;;;;;29.25;23.42;;;;;;;;;;4992793;28;20570;-45
2022/07/23 07:38:51;;;;;;;35.88;27.80;;;;;;;;;;4992475;28;20101;-47
2022/07/23 07:41:22;;;;;;;30.98;25.40;;;;;;;;;;4991373;28;20109;-45
2022/07/23 07:43:48;;;;;;;37.30;27.08;;;;;;;;;;4992608;28;20018;-46
2022/07/23 07:46:14;;;;;;;37.72;25.15;;;;;;;;;;4992595;28;20026;-45
2022/07/23 07:48:40;;;;;;;31.73;25.00;;;;;;;;;;4992399;28;20022;-44
2022/07/23 07:51:06;;;;;;;32.08;25.00;;;;;;;;;;4991431;28;20092;-45
2022/07/23 07:53:32;;;;;;;34.00;25.08;;;;;;;;;;4992632;28;20031;-47
2022/07/23 07:55:58;;;;;;;31.20;23.77;;;;;;;;;;4992518;28;20034;-44
2022/07/23 07:58:25;;;;;;;40.72;27.45;;;;;;;;;;4992246;28;20030;-46
2022/07/23 08:00:51;;;;;;;29.58;24.30;;;;;;;;;;4992299;28;20034;-49
2022/07/23 08:03:17;;;;;;;31.15;25.42;;;;;;;;;;4991596;28;20369;-48
2022/07/23 08:05:43;;;;;;;39.15;23.33;;;;;;;;;;4995676;28;20520;-48
2022/07/23 08:08:14;;;;;;;29.13;23.48;;;;;;;;;;4998289;28;20033;-43
2022/07/23 08:10:40;;;;;;;38.28;23.63;;;;;;;;;;4998211;28;20034;-44
2022/07/23 08:13:06;;;;;;;28.80;21.67;;;;;;;;;;4998530;28;20030;-55
2022/07/23 08:15:32;;;;;;;33.63;23.35;;;;;;;;;;4998819;28;20065;-52
2022/07/23 08:17:59;;;;;;;30.92;20.13;;;;;;;;;;4998525;28;20030;-54
2022/07/23 08:20:26;;;;;;;27.15;19.20;;;;;;;;;;4996944;28;20096;-56
2022/07/23 08:22:56;;;;;;;34.17;18.33;;;;;;;;;;4998527;28;20026;-56
2022/07/23 08:25:23;;;;;;;25.73;17.65;;;;;;;;;;4998542;28;20031;-55
2022/07/23 08:27:50;;;;;;;23.15;17.63;;;;;;;;;;4998600;28;20026;-52
2022/07/23 08:30:19;;;;;;;26.27;17.98;;;;;;;;;;4997133;28;20491;-55
2022/07/23 08:32:49;;;;;;;28.20;17.23;;;;;;;;;;4998713;28;20031;-55
2022/07/23 08:35:16;;;;;;;25.48;18.35;;;;;;;;;;4998605;28;20078;-52
2022/07/23 08:37:42;;;;;;;24.80;16.67;;;;;;;;;;4998526;28;20395;-52
2022/07/23 08:40:08;;;;;;;20.52;16.67;;;;;;;;;;4998137;28;20026;-51
2022/07/23 08:42:35;;;;;;;22.90;14.60;;;;;;;;;;4998557;28;20506;-54
2022/07/23 08:45:02;;;;;;;17.38;14.57;;;;;;;;;;4998446;28;20399;-53
2022/07/23 08:47:29;;;;;;;21.25;14.98;;;;;;;;;;4998452;28;20065;-55
2022/07/23 08:49:57;;;;;;;17.95;15.40;;;;;;;;;;4996790;28;20502;-51
2022/07/23 08:52:23;;;;;;;27.08;14.95;;;;;;;;;;4998312;28;20022;-52
2022/07/23 08:54:49;;;;;;;19.30;15.00;;;;;;;;;;4998575;28;20037;-52
2022/07/23 08:57:15;;;;;;;23.30;14.07;;;;;;;;;;4998367;28;20029;-52
2022/07/23 08:59:41;;;;;;;27.33;13.57;;;;;;;;;;4998096;28;20026;-52
2022/07/23 09:02:07;;;;;;;20.35;13.25;;;;;;;;;;4998303;28;20026;-52
2022/07/23 09:04:34;;;;;;;18.95;12.20;;;;;;;;;;4997033;28;20026;-51
2022/07/23 09:07:02;;;;;;;23.10;14.25;;;;;;;;;;4998197;28;20029;-52
2022/07/23 09:09:30;;;;;;;24.85;14.52;;;;;;;;;;4998046;28;20101;-52
2022/07/23 09:12:06;;;;;;;25.02;13.68;;;;;;;;;;4998433;28;20026;-51
2022/07/23 09:14:38;;;;;;;33.72;12.18;;;;;;;;;;4998297;28;20084;-52
2022/07/23 09:17:15;;;;;;;18.48;13.98;;;;;;;;;;4995347;28;20037;-54
2022/07/23 09:19:41;;;;;;;23.92;10.80;;;;;;;;;;4994508;28;20106;-56
2022/07/23 09:22:17;;;;;;;14.13;10.63;;;;;;;;;;4995306;28;20168;-52
2022/07/23 09:25:02;;;;;;;26.05;11.13;;;;;;;;;;4994960;28;20411;-52
2022/07/23 09:27:45;;;;;;;17.92;10.82;;;;;;;;;;4995002;28;20053;-52
2022/07/23 09:30:11;;;;;;;23.77;11.80;;;;;;;;;;4994573;28;20030;-52
2022/07/23 09:32:38;;;;;;;16.80;11.57;;;;;;;;;;4994937;28;20077;-50
2022/07/23 09:35:04;;;;;;;26.80;10.57;;;;;;;;;;4994749;28;20033;-52
2022/07/23 09:37:30;;;;;;;15.27;10.80;;;;;;;;;;4994846;28;20568;-49
2022/07/23 09:40:04;;;;;;;16.55;11.07;;;;;;;;;;4994463;28;20053;-51
2022/07/23 09:42:30;;;;;;;23.23;10.95;;;;;;;;;;4993372;28;20026;-52
2022/07/23 09:44:57;;;;;;;18.90;10.13;;;;;;;;;;4994584;28;20514;-52
2022/07/23 09:47:23;;;;;;;;;;;;;;;;;;4993797;28;20029;-50
2022/07/23 09:50:01;;;;;;;14.32;9.50;;;;;;;;;;4993049;28;19906;-52
2022/07/23 09:52:28;;;;;;;23.80;9.77;;;;;;;;;;4994413;28;20403;-52
2022/07/23 09:55:01;;;;;;;59.25;11.98;;;;;;;;;;4994545;28;20026;-51
2022/07/23 09:57:28;;;;;;;9.48;7.78;;;;;;;;;;4993203;28;20443;-55
2022/07/23 09:59:57;;;;;;;11.10;7.78;;;;;;;;;;4994209;28;20030;-55
2022/07/23 10:02:24;;;;;;;13.65;7.97;;;;;;;;;;4994449;28;20514;-55
2022/07/23 10:04:52;;;;;;;10.70;7.75;;;;;;;;;;4993105;28;20027;-57
2022/07/23 10:07:22;;;;;;;16.73;8.52;;;;;;;;;;4994357;28;20031;-57
2022/07/23 10:09:50;;;;;;;11.65;7.47;;;;;;;;;;4994085;28;20058;-57
2022/07/23 10:14:44;;;;;;;16.33;9.68;;;;;;;;;;4994088;28;20054;-56
2022/07/23 10:17:10;;;;;;;11.20;9.38;;;;;;;;;;4993661;28;20441;-56
2022/07/23 10:19:36;;;;;;;13.25;8.68;;;;;;;;;;4993573;28;20117;-54
2022/07/23 10:22:05;;;;;;;27.95;10.10;;;;;;;;;;4994016;28;20026;-55
2022/07/23 10:24:38;;;;;;;11.43;8.35;;;;;;;;;;4994011;28;20029;-57
2022/07/23 10:27:04;;;;;;;11.88;8.55;;;;;;;;;;4992761;28;20025;-53
2022/07/23 10:29:37;;;;;;;15.40;8.48;;;;;;;;;;4993376;28;20089;-55
2022/07/23 10:32:07;;;;;;;12.63;8.98;;;;;;;;;;4993493;28;20498;-58
2022/07/23 10:34:44;;;;;;;26.20;8.82;;;;;;;;;;4993625;28;20053;-57
2022/07/23 10:37:33;;;;;;;12.02;8.00;;;;;;;;;;4993771;28;20537;-54
2022/07/23 10:40:10;;;;;;;20.15;9.35;;;;;;;;;;4992295;28;20406;-53
2022/07/23 10:42:36;;;;;;;;;;;;;;;;;;4994131;28;20387;-61
2022/07/23 10:45:22;;;;;;;15.35;8.02;;;;;;;;;;4993174;28;19913;-55
2022/07/23 10:47:50;;;;;;;10.82;7.80;;;;;;;;;;4993031;28;20053;-53
2022/07/23 10:50:30;;;;;;;13.93;8.32;;;;;;;;;;4986414;28;20539;-55
2022/07/23 10:53:17;;;;;;;65.13;56.58;;;;;;;;;;4989078;28;20029;-56
2022/07/23 10:55:51;;;;;;;15.38;9.48;;;;;;;;;;4992098;28;20571;-55
2022/07/23 10:58:22;;;;;;;12.05;7.78;;;;;;;;;;4986757;28;20058;-56
2022/07/23 11:00:49;;;;;;;12.15;8.13;;;;;;;;;;4977032;28;20038;-57
2022/07/23 11:03:15;;;;;;;;;;;;;;;;;;4979865;28;20073;-58
2022/07/23 11:05:45;;;;;;;14.68;8.77;;;;;;;;;;4993217;28;19910;-59
2022/07/23 11:08:16;;;;;;;11.10;8.82;;;;;;;;;;4993123;28;20030;-57
2022/07/23 11:10:53;;;;;;;12.88;7.68;;;;;;;;;;4992141;28;20442;-58
2022/07/23 11:13:22;;;;;;;16.73;8.65;;;;;;;;;;4992579;28;20117;-58
2022/07/23 11:16:05;;;;;;;9.38;8.00;;;;;;;;;;4993083;28;20106;-56
2022/07/23 11:18:41;;;;;;;15.05;8.48;;;;;;;;;;4989250;28;20026;-58
2022/07/23 11:21:31;;;;;;;9.85;7.55;;;;;;;;;;5008201;22;20034;-51
2022/07/23 11:23:58;;;;;;;12.38;7.60;;;;;;;;;;5011531;28;20379;-50
2022/07/23 11:26:43;;;;;;;14.10;8.38;;;;;;;;;;4993316;28;20023;-52
2022/07/23 11:29:36;;;;;;;18.60;8.48;;;;;;;;;;4991832;28;20018;-50
2022/07/23 11:32:04;;;;;;;15.07;8.35;;;;;;;;;;4986833;28;20026;-49
2022/07/23 11:34:33;;;;;;;10.07;8.25;;;;;;;;;;4989779;28;20025;-50
2022/07/23 11:37:00;;;;;;;11.27;8.30;;;;;;;;;;4991259;28;20572;-49
2022/07/23 11:39:28;;;;;;;15.70;7.90;;;;;;;;;;4991174;28;20042;-50
2022/07/23 11:41:55;;;;;;;11.38;7.43;;;;;;;;;;4983627;28;20022;-50
2022/07/23 11:44:31;;;;;;;10.38;7.50;;;;;;;;;;4983752;28;20026;-50
2022/07/23 11:46:59;;;;;;;10.10;7.55;;;;;;;;;;4987530;28;20030;-49
2022/07/23 11:49:26;;;;;;;11.23;7.63;;;;;;;;;;4988311;28;20026;-53
2022/07/23 11:52:04;;;;;;;11.50;8.05;;;;;;;;;;4991963;28;20113;-50
2022/07/23 11:54:31;;;;;;;14.23;7.43;;;;;;;;;;4987560;28;20022;-50
2022/07/23 11:56:58;;;;;;;14.23;7.15;;;;;;;;;;4992141;28;20030;-50
2022/07/23 11:59:25;;;;;;;8.98;6.93;;;;;;;;;;4991787;28;20052;-51
2022/07/23 12:02:04;;;;;;;9.27;6.53;;;;;;;;;;4991302;28;20023;-51
2022/07/23 12:04:40;;;;;;;8.63;6.07;;;;;;;;;;4990994;28;20026;-50
2022/07/23 12:07:23;;;;;;;8.45;6.07;;;;;;;;;;4991189;28;20137;-50
2022/07/23 12:09:49;;;;;;;7.35;6.47;;;;;;;;;;4990919;28;20073;-51
2022/07/23 12:12:15;;;;;;;;;;;;;;;;;;4991175;28;20108;-49
2022/07/23 12:15:10;;;;;;;10.00;6.85;;;;;;;;;;4992127;28;20333;-50
2022/07/23 12:17:38;;;;;;;9.60;5.97;;;;;;;;;;4987661;28;20030;-50
2022/07/23 12:20:06;;;;;;;18.95;6.80;;;;;;;;;;4991504;28;20038;-51
2022/07/23 12:22:40;;;;;;;13.45;6.40;;;;;;;;;;4992150;28;20511;-49
2022/07/23 12:25:07;;;;;;;10.38;6.88;;;;;;;;;;4991093;28;20110;-50
2022/07/23 12:27:34;;;;;;;9.57;6.43;;;;;;;;;;4992077;28;20030;-50
2022/07/23 12:30:15;;;;;;;11.30;7.05;;;;;;;;;;4991989;28;20714;-50
2022/07/23 12:32:44;;;;;;;7.20;6.07;;;;;;;;;;4992044;28;20022;-50
2022/07/23 12:35:10;;;;;;;8.98;6.30;;;;;;;;;;4983420;28;20031;-49
2022/07/23 12:37:38;;;;;;;13.23;7.28;;;;;;;;;;4991668;28;20026;-49
2022/07/23 12:40:23;;;;;;;10.45;6.20;;;;;;;;;;4991752;28;20026;-50
2022/07/23 12:42:59;;;;;;;11.57;6.53;;;;;;;;;;4990360;28;20390;-50
2022/07/23 12:45:25;;;;;;;8.80;6.22;;;;;;;;;;4991895;28;20030;-48
2022/07/23 12:47:58;;;;;;;8.07;5.53;;;;;;;;;;4992137;28;20410;-49
2022/07/23 12:50:43;;;;;;;10.55;6.30;;;;;;;;;;4991602;28;20038;-48
2022/07/23 12:53:17;;;;;;;8.93;6.32;;;;;;;;;;4995390;28;20109;-48
2022/07/23 12:55:44;;;;;;;9.52;6.22;;;;;;;;;;4995408;28;20073;-48
2022/07/23 12:58:20;;;;;;;9.00;6.13;;;;;;;;;;4994359;28;20057;-49
2022/07/23 13:00:46;;;;;;;;;;;;;;;;;;4995451;28;20036;-49
2022/07/23 13:03:21;;;;;;;8.68;6.82;;;;;;;;;;4995452;28;19914;-51
2022/07/23 13:05:47;;;;;;;7.32;6.40;;;;;;;;;;4995378;28;20030;-49
2022/07/23 13:08:13;;;;;;;;;;;;;;;;;;4994511;28;20022;-49
2022/07/23 13:10:39;;;;;;;10.30;6.18;;;;;;;;;;4994758;28;19917;-48
2022/07/23 13:13:12;;;;;;;11.25;6.53;;;;;;;;;;4995090;28;20042;-51
2022/07/23 13:15:39;;;;;;;13.27;5.90;;;;;;;;;;4995298;28;20041;-50
2022/07/23 13:18:05;;;;;;;11.20;6.80;;;;;;;;;;4995444;28;20490;-51
2022/07/23 13:20:33;;;;;;;10.25;6.18;;;;;;;;;;4994204;28;20694;-51
2022/07/23 13:23:00;;;;;;;10.75;5.80;;;;;;;;;;4987390;28;20030;-51
2022/07/23 13:25:27;;;;;;;9.30;6.20;;;;;;;;;;4985432;28;20125;-50
2022/07/23 13:27:53;;;;;;;11.55;4.68;;;;;;;;;;4981560;28;20027;-51
2022/07/23 13:30:19;;;;;;;6.95;5.45;;;;;;;;;;4974727;28;20590;-51
2022/07/23 13:32:45;;;;;;;10.40;6.03;;;;;;;;;;4994939;28;20038;-49
2022/07/23 13:35:12;;;;;;;11.77;5.90;;;;;;;;;;4994916;28;20030;-51
2022/07/23 13:37:38;;;;;;;22.10;6.43;;;;;;;;;;4994446;28;20109;-53
2022/07/23 13:40:05;;;;;;;11.77;6.28;;;;;;;;;;4994483;28;20031;-54
2022/07/23 13:42:31;;;;;;;11.25;6.07;;;;;;;;;;4993923;28;20510;-52
2022/07/23 13:44:57;;;;;;;9.15;5.22;;;;;;;;;;4988759;28;20034;-52
2022/07/23 13:47:24;;;;;;;6.75;5.68;;;;;;;;;;4991672;28;20670;-53
2022/07/23 13:49:50;;;;;;;8.55;5.32;;;;;;;;;;4994478;28;20030;-53
2022/07/23 13:52:17;;;;;;;9.75;5.82;;;;;;;;;;4994234;28;20030;-50
2022/07/23 13:54:43;;;;;;;11.27;5.90;;;;;;;;;;4987944;28;20030;-50
2022/07/23 13:57:10;;;;;;;13.52;5.93;;;;;;;;;;4988785;28;20084;-53
2022/07/23 13:59:36;;;;;;;10.13;5.35;;;;;;;;;;4979901;28;20174;-54
2022/07/23 14:02:03;;;;;;;9.45;6.05;;;;;;;;;;4994504;28;20026;-50
2022/07/23 14:04:29;;;;;;;8.25;4.97;;;;;;;;;;4993756;28;20030;-52
2022/07/23 14:06:56;;;;;;;6.38;5.25;;;;;;;;;;4989921;28;20026;-52
2022/07/23 14:09:23;;;;;;;5.65;5.00;;;;;;;;;;4985557;28;20465;-51
2022/07/23 14:11:50;;;;;;;9.60;5.53;;;;;;;;;;4982889;28;20019;-52
2022/07/23 14:14:17;;;;;;;9.40;5.15;;;;;;;;;;4984809;28;20034;-51
2022/07/23 14:16:43;;;;;;;5.95;5.32;;;;;;;;;;4988500;28;20034;-50
2022/07/23 14:19:11;;;;;;;8.80;4.85;;;;;;;;;;4976880;28;20034;-50
2022/07/23 14:21:38;;;;;;;9.82;5.63;;;;;;;;;;4989619;28;20037;-50
2022/07/23 14:24:04;;;;;;;10.52;4.70;;;;;;;;;;4984224;28;20011;-50
2022/07/23 14:26:30;;;;;;;7.75;4.63;;;;;;;;;;4986737;28;20113;-51